createdAt,value
2018-10-06T00:00:27.844Z,6.40
2018-10-06T00:02:56.004Z,11.60
2018-10-06T00:05:24.133Z,8.83
2018-10-06T00:07:52.287Z,8.67
2018-10-06T00:10:20.437Z,7.93
2018-10-06T00:12:48.580Z,6.90
2018-10-06T00:15:16.722Z,9.30
2018-10-06T00:17:44.866Z,10.90
2018-10-06T00:20:13.012Z,7.80
2018-10-06T00:22:41.143Z,5.60
2018-10-06T00:25:09.267Z,12.03
2018-10-06T00:27:37.395Z,8.50
2018-10-06T00:30:05.635Z,8.53
2018-10-06T00:32:33.765Z,9.30
2018-10-06T00:35:01.890Z,7.90
2018-10-06T00:37:30.016Z,7.03
2018-10-06T00:39:58.136Z,4.83
2018-10-06T00:42:26.291Z,12.20
2018-10-06T00:44:54.445Z,8.63
2018-10-06T00:47:22.636Z,5.20
2018-10-06T00:49:50.697Z,6.30
2018-10-06T00:52:18.836Z,5.67
2018-10-06T00:54:46.959Z,4.63
2018-10-06T00:57:15.127Z,7.20
2018-10-06T00:59:43.275Z,7.67
2018-10-06T01:02:11.400Z,6.03
2018-10-06T01:04:39.522Z,6.87
2018-10-06T01:07:07.642Z,7.20
2018-10-06T01:09:35.772Z,5.57
2018-10-06T01:12:03.975Z,7.27
2018-10-06T01:14:32.135Z,5.77
2018-10-06T01:17:00.345Z,4.63
2018-10-06T01:19:28.452Z,4.43
2018-10-06T01:21:56.575Z,4.37
2018-10-06T01:24:24.714Z,6.50
2018-10-06T01:26:52.825Z,5.33
2018-10-06T01:29:20.990Z,5.07
2018-10-06T01:31:49.109Z,4.20
2018-10-06T01:34:17.280Z,5.73
2018-10-06T01:36:45.423Z,6.50
2018-10-06T01:39:13.557Z,4.70
2018-10-06T01:41:41.700Z,4.60
2018-10-06T01:44:09.842Z,6.60
2018-10-06T01:46:37.983Z,4.73
2018-10-06T01:49:06.135Z,7.60
2018-10-06T01:51:34.302Z,4.03
2018-10-06T01:54:02.423Z,6.60
2018-10-06T01:56:30.554Z,5.07
2018-10-06T01:58:58.678Z,3.73
2018-10-06T02:01:26.800Z,5.13
2018-10-06T02:03:54.991Z,3.57
2018-10-06T02:06:23.113Z,6.77
2018-10-06T02:08:51.270Z,4.37
2018-10-06T02:11:19.396Z,4.80
2018-10-06T02:13:47.583Z,4.67
2018-10-06T02:16:15.708Z,4.27
2018-10-06T02:18:43.831Z,3.67
2018-10-06T02:21:11.967Z,4.90
2018-10-06T02:23:40.089Z,5.00
2018-10-06T02:26:08.238Z,4.20
2018-10-06T02:28:36.363Z,6.53
2018-10-06T02:31:04.479Z,4.67
2018-10-06T02:33:32.623Z,4.80
2018-10-06T02:36:00.749Z,5.13
2018-10-06T02:38:28.877Z,6.57
2018-10-06T02:40:57.016Z,9.17
2018-10-06T02:43:25.161Z,5.67
2018-10-06T02:45:53.324Z,5.67
2018-10-06T02:48:21.489Z,4.20
2018-10-06T02:50:49.603Z,9.17
2018-10-06T02:53:17.734Z,4.60
2018-10-06T02:55:45.860Z,11.20
2018-10-06T02:58:13.994Z,7.07
2018-10-06T03:00:42.133Z,6.30
2018-10-06T03:03:10.262Z,5.30
2018-10-06T03:05:38.406Z,4.67
2018-10-06T03:08:06.537Z,5.90
2018-10-06T03:10:34.668Z,5.10
2018-10-06T03:13:02.784Z,6.10
2018-10-06T03:15:30.930Z,5.73
2018-10-06T03:17:59.048Z,7.47
2018-10-06T03:20:27.189Z,3.93
2018-10-06T03:22:56.330Z,6.20
2018-10-06T03:25:24.472Z,6.80
2018-10-06T03:27:52.585Z,6.07
2018-10-06T03:30:20.740Z,6.07
2018-10-06T03:32:48.870Z,4.97
2018-10-06T03:35:17.001Z,6.13
2018-10-06T03:37:45.152Z,5.23
2018-10-06T03:40:13.273Z,9.03
2018-10-06T03:42:41.390Z,5.77
2018-10-06T03:45:09.543Z,5.90
2018-10-06T03:47:37.665Z,8.67
2018-10-06T03:50:05.819Z,7.67
2018-10-06T03:52:33.936Z,8.80
2018-10-06T03:55:02.048Z,6.40
2018-10-06T03:57:30.188Z,6.70
2018-10-06T03:59:58.332Z,7.03
2018-10-06T04:02:26.467Z,7.03
2018-10-06T04:04:54.679Z,6.43
2018-10-06T04:07:22.949Z,8.73
2018-10-06T04:09:51.096Z,5.77
2018-10-06T04:12:19.222Z,7.13
2018-10-06T04:14:47.376Z,11.63
2018-10-06T04:17:15.498Z,9.27
2018-10-06T04:19:43.741Z,11.23
2018-10-06T04:22:11.878Z,9.10
2018-10-06T04:24:39.995Z,6.40
2018-10-06T04:27:08.140Z,6.60
2018-10-06T04:29:36.272Z,8.70
2018-10-06T04:32:04.429Z,7.57
2018-10-06T04:34:32.553Z,7.60
2018-10-06T04:37:00.693Z,8.90
2018-10-06T04:39:28.829Z,10.07
2018-10-06T04:41:56.977Z,6.30
2018-10-06T04:44:25.095Z,9.53
2018-10-06T04:46:53.242Z,7.63
2018-10-06T04:49:21.368Z,7.30
2018-10-06T04:51:49.521Z,6.13
2018-10-06T04:54:17.656Z,9.20
2018-10-06T04:56:45.788Z,9.23
2018-10-06T04:59:13.914Z,10.20
2018-10-06T05:01:42.044Z,7.07
2018-10-06T05:04:10.177Z,9.97
2018-10-06T05:06:38.316Z,9.97
2018-10-06T05:09:07.156Z,7.40
2018-10-06T05:11:35.308Z,9.63
2018-10-06T05:14:03.448Z,7.50
2018-10-06T05:16:31.803Z,8.03
2018-10-06T05:19:00.263Z,13.73
2018-10-06T05:21:28.397Z,13.33
2018-10-06T05:23:56.562Z,7.97
2018-10-06T05:26:24.689Z,10.33
2018-10-06T05:28:52.831Z,11.23
2018-10-06T05:31:20.976Z,12.20
2018-10-06T05:33:49.123Z,10.90
2018-10-06T05:36:17.251Z,14.27
2018-10-06T05:38:45.391Z,8.93
2018-10-06T05:41:13.511Z,9.97
2018-10-06T05:43:41.648Z,9.60
2018-10-06T05:46:09.782Z,12.00
2018-10-06T05:48:37.953Z,13.33
2018-10-06T05:51:06.575Z,9.27
2018-10-06T05:53:34.691Z,8.53
2018-10-06T05:56:02.837Z,9.60
2018-10-06T05:58:30.963Z,8.30
2018-10-06T06:00:59.083Z,9.07
2018-10-06T06:03:27.239Z,9.33
2018-10-06T06:05:55.356Z,12.87
2018-10-06T06:08:23.489Z,15.63
2018-10-06T06:10:51.880Z,11.87
2018-10-06T06:13:20.020Z,12.50
2018-10-06T06:15:48.208Z,10.73
2018-10-06T06:18:16.311Z,10.20
2018-10-06T06:20:44.451Z,9.63
2018-10-06T06:23:12.571Z,10.27
2018-10-06T06:25:40.697Z,9.47
2018-10-06T06:28:08.897Z,11.10
2018-10-06T06:30:37.035Z,16.63
2018-10-06T06:33:05.220Z,11.63
2018-10-06T06:35:33.358Z,12.83
2018-10-06T06:38:01.515Z,14.97
2018-10-06T06:40:29.647Z,11.80
2018-10-06T06:42:57.769Z,12.83
2018-10-06T06:45:25.945Z,12.90
2018-10-06T06:47:54.112Z,13.57
2018-10-06T06:50:22.237Z,13.03
2018-10-06T06:52:50.396Z,12.07
2018-10-06T06:55:18.538Z,12.93
2018-10-06T06:57:46.682Z,15.97
2018-10-06T07:00:14.814Z,12.33
2018-10-06T07:02:42.959Z,17.07
2018-10-06T07:05:11.120Z,14.77
2018-10-06T07:07:39.288Z,15.70
2018-10-06T07:10:07.447Z,16.00
2018-10-06T07:12:35.646Z,13.13
2018-10-06T07:15:03.808Z,23.43
2018-10-06T07:17:31.946Z,17.40
2018-10-06T07:20:00.077Z,15.43
2018-10-06T07:22:28.231Z,14.80
2018-10-06T07:24:56.384Z,11.40
2018-10-06T07:27:24.553Z,15.60
2018-10-06T07:29:52.696Z,13.63
2018-10-06T07:32:20.819Z,13.53
2018-10-06T07:34:49.795Z,14.00
2018-10-06T07:37:17.935Z,11.30
2018-10-06T07:39:46.051Z,11.07
2018-10-06T07:42:14.193Z,12.60
2018-10-06T07:44:42.350Z,11.37
2018-10-06T07:47:10.475Z,11.90
2018-10-06T07:49:38.620Z,12.40
2018-10-06T07:52:06.768Z,9.97
2018-10-06T07:54:34.908Z,9.53
2018-10-06T07:57:03.057Z,6.90
2018-10-06T07:59:31.203Z,9.57
2018-10-06T08:01:59.345Z,12.83
2018-10-06T08:04:27.519Z,9.23
2018-10-06T08:06:55.732Z,7.37
2018-10-06T08:09:30.383Z,11.50
2018-10-06T08:11:58.500Z,9.10
2018-10-06T08:14:26.630Z,6.40
2018-10-06T08:16:54.772Z,7.70
2018-10-06T08:19:22.894Z,9.50
2018-10-06T08:21:51.028Z,8.20
2018-10-06T08:24:19.157Z,7.27
2018-10-06T08:26:47.310Z,8.37
2018-10-06T08:29:15.478Z,8.67
2018-10-06T08:31:43.632Z,7.97
2018-10-06T08:34:11.755Z,7.17
2018-10-06T08:36:39.878Z,8.30
2018-10-06T08:39:08.701Z,9.63
2018-10-06T08:41:36.835Z,6.13
2018-10-06T08:44:04.951Z,7.77
2018-10-06T08:46:33.082Z,7.83
2018-10-06T08:49:01.228Z,6.10
2018-10-06T08:51:29.361Z,8.50
2018-10-06T08:53:57.488Z,6.60
2018-10-06T08:56:25.689Z,8.23
2018-10-06T08:58:53.932Z,7.47
2018-10-06T09:01:22.585Z,4.97
2018-10-06T09:03:50.716Z,8.33
2018-10-06T09:06:18.850Z,4.23
2018-10-06T09:08:46.960Z,5.83
2018-10-06T09:11:15.086Z,3.70
2018-10-06T09:13:43.207Z,5.70
2018-10-06T09:16:11.349Z,3.73
2018-10-06T09:18:39.471Z,4.30
2018-10-06T09:21:07.609Z,8.93
2018-10-06T09:23:35.781Z,6.20
2018-10-06T09:26:03.895Z,5.00
2018-10-06T09:28:32.024Z,5.40
2018-10-06T09:31:00.180Z,4.00
2018-10-06T09:33:28.311Z,3.67
2018-10-06T09:35:56.466Z,6.60
2018-10-06T09:38:24.580Z,3.30
2018-10-06T09:40:52.768Z,4.23
2018-10-06T09:43:20.887Z,4.60
2018-10-06T09:45:49.038Z,2.80
2018-10-06T09:48:17.224Z,5.27
2018-10-06T09:50:45.308Z,3.50
2018-10-06T09:53:13.428Z,4.20
2018-10-06T09:55:41.561Z,5.27
2018-10-06T09:58:09.719Z,3.67
2018-10-06T10:00:43.322Z,3.53
2018-10-06T10:03:17.008Z,4.77
2018-10-06T10:05:47.461Z,2.40
2018-10-06T10:08:15.644Z,2.73
2018-10-06T10:10:43.757Z,3.33
2018-10-06T10:13:11.910Z,2.67
2018-10-06T10:15:40.054Z,5.30
2018-10-06T10:18:08.237Z,4.20
2018-10-06T10:20:36.583Z,4.23
2018-10-06T10:23:04.812Z,2.60
2018-10-06T10:25:32.913Z,2.27
2018-10-06T10:28:01.051Z,4.60
2018-10-06T10:30:29.169Z,2.00
2018-10-06T10:32:57.286Z,2.40
2018-10-06T10:35:31.324Z,3.07
2018-10-06T10:37:59.480Z,2.20
2018-10-06T10:40:27.644Z,5.87
2018-10-06T10:42:55.798Z,3.40
2018-10-06T10:45:23.935Z,2.23
2018-10-06T10:47:52.061Z,4.17
2018-10-06T10:50:20.179Z,6.10
2018-10-06T10:52:48.303Z,2.87
2018-10-06T10:55:16.432Z,2.57
2018-10-06T10:57:44.616Z,5.50
2018-10-06T11:00:12.749Z,2.50
2018-10-06T11:02:40.864Z,2.50
2018-10-06T11:05:09.024Z,3.33
2018-10-06T11:07:37.161Z,5.00
2018-10-06T11:10:05.608Z,3.63
2018-10-06T11:12:33.726Z,4.10
2018-10-06T11:15:01.866Z,3.07
2018-10-06T11:17:30.261Z,3.73
2018-10-06T11:19:58.403Z,3.77
2018-10-06T11:22:26.548Z,3.43
2018-10-06T11:24:54.720Z,3.50
2018-10-06T11:27:22.872Z,4.20
2018-10-06T11:29:51.011Z,4.50
2018-10-06T11:32:19.196Z,3.70
2018-10-06T11:34:47.354Z,2.50
2018-10-06T11:37:15.565Z,2.90
2018-10-06T11:39:43.654Z,3.90
2018-10-06T11:42:11.799Z,2.47
2018-10-06T11:44:39.964Z,4.73
2018-10-06T11:47:08.188Z,3.27
2018-10-06T11:49:36.324Z,2.83
2018-10-06T11:52:04.472Z,4.03
2018-10-06T11:54:32.591Z,4.10
2018-10-06T11:57:00.772Z,2.93
2018-10-06T11:59:28.917Z,6.17
2018-10-06T12:01:57.066Z,2.47
2018-10-06T12:04:25.232Z,4.40
2018-10-06T12:06:53.360Z,3.43
2018-10-06T12:09:21.485Z,2.70
2018-10-06T12:11:49.616Z,3.30
2018-10-06T12:14:17.777Z,4.53
2018-10-06T12:16:45.906Z,2.63
2018-10-06T12:19:14.034Z,3.20
2018-10-06T12:21:42.159Z,3.73
2018-10-06T12:24:10.298Z,5.17
2018-10-06T12:26:38.454Z,7.37
2018-10-06T12:29:06.601Z,4.53
2018-10-06T12:31:34.718Z,4.23
2018-10-06T12:34:02.864Z,3.03
2018-10-06T12:36:31.007Z,3.27
2018-10-06T12:38:59.149Z,2.73
2018-10-06T12:41:27.340Z,4.43
2018-10-06T12:43:55.598Z,2.33
2018-10-06T12:46:23.732Z,3.30
2018-10-06T12:48:51.910Z,2.40
2018-10-06T12:51:20.107Z,2.40
2018-10-06T12:53:48.201Z,5.13
2018-10-06T12:56:16.340Z,2.60
2018-10-06T13:01:37.517Z,2.10
2018-10-06T13:04:05.700Z,2.20
2018-10-06T13:06:33.835Z,2.20
2018-10-06T13:09:01.965Z,2.67
2018-10-06T13:11:30.143Z,5.87
2018-10-06T13:13:58.289Z,5.00
2018-10-06T13:16:26.443Z,3.53
2018-10-06T13:18:54.686Z,2.73
2018-10-06T13:21:22.807Z,6.80
2018-10-06T13:23:50.973Z,4.20
2018-10-06T13:26:19.098Z,2.70
2018-10-06T13:28:47.279Z,2.60
2018-10-06T13:31:15.429Z,2.80
2018-10-06T13:33:43.576Z,4.63
2018-10-06T13:36:11.698Z,7.50
2018-10-06T13:38:39.919Z,2.77
2018-10-06T13:41:08.037Z,4.30
2018-10-06T13:43:36.150Z,3.03
2018-10-06T13:46:04.312Z,3.17
2018-10-06T13:48:32.434Z,3.47
2018-10-06T13:51:00.614Z,2.80
2018-10-06T13:53:28.828Z,2.70
2018-10-06T13:55:57.055Z,4.23
2018-10-06T13:58:25.400Z,4.57
2018-10-06T14:00:53.564Z,3.90
2018-10-06T14:03:21.698Z,3.73
2018-10-06T14:05:49.838Z,5.17
2018-10-06T14:08:17.936Z,4.53
2018-10-06T14:10:46.107Z,2.63
2018-10-06T14:13:14.230Z,5.93
2018-10-06T14:15:42.384Z,4.60
2018-10-06T14:18:10.543Z,6.03
2018-10-06T14:20:38.885Z,4.33
2018-10-06T14:23:07.031Z,3.67
2018-10-06T14:25:35.182Z,3.97
2018-10-06T14:28:03.316Z,3.47
2018-10-06T14:30:31.478Z,3.13
2018-10-06T14:32:59.589Z,3.57
2018-10-06T14:35:27.726Z,5.57
2018-10-06T14:37:56.109Z,3.63
2018-10-06T14:40:24.599Z,3.00
2018-10-06T14:42:52.750Z,5.67
2018-10-06T14:45:20.892Z,2.73
2018-10-06T14:47:49.024Z,6.17
2018-10-06T14:50:17.198Z,3.90
2018-10-06T14:52:45.417Z,3.87
2018-10-06T14:55:13.502Z,5.03
2018-10-06T14:57:41.704Z,3.03
2018-10-06T15:00:09.965Z,3.57
2018-10-06T15:02:38.139Z,3.73
2018-10-06T15:05:06.411Z,5.50
2018-10-06T15:07:34.579Z,6.20
2018-10-06T15:10:02.713Z,4.47
2018-10-06T15:12:30.841Z,6.87
2018-10-06T15:14:59.089Z,4.97
2018-10-06T15:17:27.438Z,4.07
2018-10-06T15:19:55.580Z,4.30
2018-10-06T15:22:23.815Z,6.70
2018-10-06T15:24:51.959Z,2.90
2018-10-06T15:27:20.104Z,5.60
2018-10-06T15:29:48.276Z,3.20
2018-10-06T15:32:16.418Z,3.30
2018-10-06T15:34:44.558Z,4.60
2018-10-06T15:37:12.718Z,4.43
2018-10-06T15:39:40.838Z,3.43
2018-10-06T15:42:09.002Z,7.00
2018-10-06T15:44:37.141Z,3.67
2018-10-06T15:47:05.331Z,4.30
2018-10-06T15:49:33.464Z,4.60
2018-10-06T15:52:01.624Z,4.07
2018-10-06T15:54:29.769Z,3.63
2018-10-06T15:56:57.909Z,4.57
2018-10-06T15:59:26.059Z,3.03
2018-10-06T16:01:54.205Z,5.77
2018-10-06T16:04:22.332Z,4.50
2018-10-06T16:06:50.458Z,4.13
2018-10-06T16:09:18.575Z,3.80
2018-10-06T16:11:46.725Z,3.40
2018-10-06T16:14:14.869Z,3.33
2018-10-06T16:16:43.001Z,4.33
2018-10-06T16:19:11.145Z,4.50
2018-10-06T16:21:39.397Z,5.57
2018-10-06T16:24:07.469Z,6.10
2018-10-06T16:26:35.600Z,4.40
2018-10-06T16:29:03.732Z,4.10
2018-10-06T16:31:31.861Z,5.43
2018-10-06T16:33:59.989Z,3.60
2018-10-06T16:36:28.124Z,3.20
2018-10-06T16:38:56.247Z,4.87
2018-10-06T16:41:24.433Z,2.83
2018-10-06T16:43:52.522Z,3.50
2018-10-06T16:46:20.643Z,6.03
2018-10-06T16:48:48.770Z,4.60
2018-10-06T16:51:16.904Z,3.90
2018-10-06T16:53:45.048Z,5.50
2018-10-06T16:56:13.180Z,4.80
2018-10-06T16:58:41.307Z,4.50
2018-10-06T17:01:09.423Z,5.03
2018-10-06T17:03:37.610Z,3.70
2018-10-06T17:06:05.744Z,4.53
2018-10-06T17:08:33.974Z,3.97
2018-10-06T17:11:02.097Z,3.10
2018-10-06T17:13:30.236Z,3.73
2018-10-06T17:15:58.360Z,4.10
2018-10-06T17:18:26.487Z,6.13
2018-10-06T17:20:54.613Z,4.23
2018-10-06T17:23:22.759Z,7.50
2018-10-06T17:25:50.899Z,4.67
2018-10-06T17:28:19.044Z,5.00
2018-10-06T17:30:47.192Z,4.23
2018-10-06T17:33:15.336Z,4.77
2018-10-06T17:35:43.471Z,3.37
2018-10-06T17:38:11.584Z,7.00
2018-10-06T17:40:39.733Z,6.90
2018-10-06T17:43:07.921Z,3.50
2018-10-06T17:45:36.061Z,3.83
2018-10-06T17:48:04.231Z,4.10
2018-10-06T17:50:32.533Z,7.87
2018-10-06T17:53:00.495Z,4.33
2018-10-06T17:55:28.643Z,5.87
2018-10-06T17:57:56.764Z,6.93
2018-10-06T18:00:25.050Z,4.30
2018-10-06T18:02:53.192Z,5.43
2018-10-06T18:05:21.320Z,3.43
2018-10-06T18:07:49.449Z,4.70
2018-10-06T18:10:17.569Z,3.03
2018-10-06T18:12:45.683Z,7.27
2018-10-06T18:15:13.837Z,3.80
2018-10-06T18:17:41.956Z,4.07
2018-10-06T18:20:10.162Z,6.80
2018-10-06T18:22:38.256Z,6.80
2018-10-06T18:25:06.376Z,5.70
2018-10-06T18:27:34.495Z,3.53
2018-10-06T18:30:02.611Z,4.67
2018-10-06T18:32:30.739Z,6.87
2018-10-06T18:34:59.095Z,5.40
2018-10-06T18:37:27.276Z,5.63
2018-10-06T18:39:55.400Z,5.10
2018-10-06T18:42:23.643Z,4.43
2018-10-06T18:44:51.756Z,6.47
2018-10-06T18:47:19.883Z,4.80
2018-10-06T18:49:48.004Z,4.80
2018-10-06T18:52:16.215Z,4.73
2018-10-06T18:54:44.280Z,4.30
2018-10-06T18:57:12.408Z,7.43
2018-10-06T18:59:40.535Z,3.83
2018-10-06T19:02:08.737Z,5.67
2018-10-06T19:04:36.847Z,3.67
2018-10-06T19:07:04.976Z,4.37
2018-10-06T19:09:33.154Z,5.07
2018-10-06T19:12:01.302Z,5.77
2018-10-06T19:14:29.444Z,5.13
2018-10-06T19:16:57.577Z,4.50
2018-10-06T19:19:25.768Z,4.53
2018-10-06T19:21:53.972Z,4.33
2018-10-06T19:24:22.097Z,3.80
2018-10-06T19:26:50.434Z,3.73
2018-10-06T19:29:18.554Z,3.87
2018-10-06T19:31:46.700Z,9.13
2018-10-06T19:34:14.827Z,5.37
2018-10-06T19:36:42.972Z,7.37
2018-10-06T19:39:11.710Z,5.33
2018-10-06T19:41:40.123Z,7.07
2018-10-06T19:44:08.254Z,4.33
2018-10-06T19:46:36.690Z,3.93
2018-10-06T19:49:04.919Z,6.33
2018-10-06T19:51:33.274Z,5.67
2018-10-06T19:54:01.372Z,4.57
2018-10-06T19:56:29.511Z,5.93
2018-10-06T19:58:57.707Z,8.33
2018-10-06T20:01:25.844Z,5.03
2018-10-06T20:03:54.050Z,4.60
2018-10-06T20:06:22.135Z,5.20
2018-10-06T20:08:50.338Z,6.47
2018-10-06T20:11:18.468Z,6.17
2018-10-06T20:13:46.683Z,5.70
2018-10-06T20:16:14.820Z,5.23
2018-10-06T20:18:42.956Z,5.50
2018-10-06T20:21:11.067Z,6.80
2018-10-06T20:23:39.201Z,5.03
2018-10-06T20:26:07.840Z,4.20
2018-10-06T20:28:35.972Z,4.60
2018-10-06T20:31:04.095Z,6.63
2018-10-06T20:33:32.219Z,4.97
2018-10-06T20:38:53.230Z,5.37
2018-10-06T20:41:21.414Z,4.77
2018-10-06T20:43:49.545Z,4.13
2018-10-06T20:46:17.673Z,5.63
2018-10-06T20:48:45.807Z,5.27
2018-10-06T20:51:13.934Z,5.50
2018-10-06T20:53:42.048Z,4.67
2018-10-06T20:56:10.164Z,5.10
2018-10-06T20:58:38.283Z,4.70
2018-10-06T21:01:06.762Z,4.33
2018-10-06T21:03:34.891Z,6.63
2018-10-06T21:06:03.015Z,5.50
2018-10-06T21:08:31.156Z,5.70
2018-10-06T21:10:59.341Z,5.63
2018-10-06T21:13:27.408Z,5.50
2018-10-06T21:15:55.537Z,4.27
2018-10-06T21:18:23.749Z,5.47
2018-10-06T21:20:51.804Z,5.17
2018-10-06T21:23:19.962Z,5.20
2018-10-06T21:25:48.096Z,4.67
2018-10-06T21:28:16.207Z,4.77
2018-10-06T21:30:44.321Z,5.17
2018-10-06T21:33:12.457Z,4.80
2018-10-06T21:35:40.563Z,5.00
2018-10-06T21:38:08.688Z,4.60
2018-10-06T21:40:36.808Z,6.17
2018-10-06T21:43:04.929Z,8.27
2018-10-06T21:45:33.074Z,5.00
2018-10-06T21:48:01.223Z,6.50
2018-10-06T21:50:29.398Z,4.20
2018-10-06T21:52:57.507Z,7.10
2018-10-06T21:55:25.636Z,4.93
2018-10-06T21:57:53.936Z,5.27
2018-10-06T22:00:22.067Z,4.60
2018-10-06T22:02:50.190Z,4.90
2018-10-06T22:05:18.320Z,6.90
2018-10-06T22:07:46.444Z,6.93
2018-10-06T22:10:14.595Z,5.17
2018-10-06T22:12:42.744Z,6.40
2018-10-06T22:15:10.940Z,4.60
2018-10-06T22:17:39.067Z,6.00
2018-10-06T22:20:07.191Z,5.50
2018-10-06T22:22:35.336Z,8.10
2018-10-06T22:25:03.488Z,7.53
2018-10-06T22:27:31.594Z,5.80
2018-10-06T22:29:59.719Z,5.10
2018-10-06T22:32:27.839Z,5.77
2018-10-06T22:34:55.971Z,6.27
2018-10-06T22:37:24.088Z,5.57
2018-10-06T22:39:52.200Z,6.00
2018-10-06T22:42:20.325Z,7.03
2018-10-06T22:44:48.439Z,8.33
2018-10-06T22:47:16.595Z,5.87
2018-10-06T22:49:44.716Z,5.37
2018-10-06T22:52:12.823Z,6.43
2018-10-06T22:54:40.992Z,6.70
2018-10-06T22:57:09.104Z,7.07
2018-10-06T22:59:37.265Z,5.27
2018-10-06T23:02:05.379Z,6.13
2018-10-06T23:04:33.509Z,5.90
2018-10-06T23:07:01.620Z,5.30
2018-10-06T23:09:29.743Z,5.77
2018-10-06T23:11:57.867Z,8.03
2018-10-06T23:14:25.992Z,5.50
2018-10-06T23:16:54.130Z,6.83
2018-10-06T23:19:22.259Z,5.10
2018-10-06T23:21:50.362Z,6.17
2018-10-06T23:24:18.488Z,5.37
2018-10-06T23:26:46.613Z,5.83
2018-10-06T23:29:14.724Z,7.23
2018-10-06T23:31:42.850Z,5.67
2018-10-06T23:34:11.014Z,5.73
2018-10-06T23:36:39.152Z,6.43
2018-10-06T23:39:07.476Z,5.47
2018-10-06T23:41:35.693Z,5.70
2018-10-06T23:44:03.802Z,7.23
2018-10-06T23:46:31.939Z,6.43
2018-10-06T23:49:00.046Z,5.47
2018-10-06T23:51:28.182Z,6.07
2018-10-06T23:53:56.331Z,5.70
2018-10-06T23:56:24.465Z,5.87
2018-10-06T23:58:52.599Z,6.53
